VHHH Airport Information

Runway Information
Runway 07L Length 12467 ft width 197 ft
Elevation 22 ft Threshold 565 ft Heading 71
Runway 25R Length 12467 ft Width 197 ft
Elevation 23 ft Threshold 580 ft Heading 251
Runway 07R Length 12467 ft width 197 ft
Elevation 28 ft Threshold 525 ft Heading 71
Runway 25L Length 12467 ft Width 197 ft
Elevation 27 ft Threshold 0 ft Heading 251
Airport Frequencies
Type AFIS Name FLIGHT SER Frequency 122.4 MHZ
Type APP Name APP Frequency 119.1 MHZ
Type APP Name Director Frequency 119.5 MHZ
Type ATIS-A Name Arrivel Frequency 128.2 MHZ
Type ATIS-D Name Departure Frequency 127.05 MHZ
Type CAC Name ZONE CON Frequency 120.6 MHZ
Type CLD Name CLNC DEL Frequency 129.9 MHZ
Type DEP Name DEP Frequency 123.8 MHZ
Type EMG Name Hong Kong Frequency 121.5 MHZ
Type GND Name GND North Frequency 121.6 MHZ
Type GND Name GND South Frequency 122.55 MHZ
Type RDR Name Radar Frequency 121.3 MHZ
Type RDR Name PRECISION Frequency 133.7 MHZ
Type TWR Name Tower Nort Frequency 118.2 MHZ
Type TWR Name TWR South Frequency 118.4 MHZ
Airport Navaids
Type VOR-DME Name Cheung Chau Frequency 112300 KHZ
Type NDB Name Cape D Aguilar Frequency 338 KHZ
Type NDB Name Lam Chau Frequency 390 KHZ
Type VOR-DME Name Lung Kwu Chau Frequency 113200 KHZ
Type VOR-DME Name Siu Mo To Frequency 114800 KHZ
Type VOR-DME Name Tathong Point Frequency 115500 KHZ
Airport Weather Information & NOTAM
ADDS - METARS form results

(0823 UTC 09 July 2020)
Data provider http://aviationweather.gov/metar/data/
 
METAR text: VHHH 090800Z 21013KT 180V240 9999 FEW022 SCT035 31/25 Q1002 NOSIG
Conditions at: VHHH (HONG KONG INTL , HK) observed 0800 UTC 09 July 2020
Temperature: 31.0°C (88°F)
Dewpoint: 25.0°C (77°F) [RH = 71%]
Pressure (altimeter): 29.59 inches Hg (1002.0 mb)
Winds: from the SSW (210 degrees) at 15 MPH (13 knots; 6.7 m/s)
Visibility: 6 or more miles (10+ km)
Ceiling: at least 12,000 feet AGL
Clouds: few clouds at 2200 feet AGL
scattered clouds at 3500 feet AGL
Weather: no significant weather observed at this time

METAR text: VHHH 090730Z 22015KT 180V240 9999 FEW020 32/25 Q1003 NOSIG
Conditions at: VHHH (HONG KONG INTL , HK) observed 0730 UTC 09 July 2020
Temperature: 32.0°C (90°F)
Dewpoint: 25.0°C (77°F) [RH = 67%]
Pressure (altimeter): 29.62 inches Hg (1003.0 mb)
Winds: from the SW (220 degrees) at 17 MPH (15 knots; 7.7 m/s)
Visibility: 6 or more miles (10+ km)
Ceiling: at least 12,000 feet AGL
Clouds: few clouds at 2000 feet AGL
Weather: no significant weather observed at this time

Forecast for: VHHH (HONG KONG INTL , HK)
Text: TAF VHHH 090500Z 0906/1012 20015KT 9999 FEW020 TX33/0906Z TX33/1006Z TN29/0922Z
Forecast period: 0600 UTC 09 July 2020 to 1200 UTC 10 July 2020
Forecast type: FROM: standard forecast or significant change
Winds: from the SSW (200 degrees) at 17 MPH (15 knots; 7.7 m/s)
Visibility: 6 or more miles 10+ km)
Ceiling: at least 12,000 feet AGL
Clouds: few clouds at 2000 feet AGL
Weather: no significant weather forecast for this period